createdAt,value
2017-03-17T00:00:32.662Z,59.30
2017-03-17T00:01:32.716Z,59.40
2017-03-17T00:02:32.926Z,59.60
2017-03-17T00:03:32.969Z,59.70
2017-03-17T00:04:34.139Z,59.80
2017-03-17T00:05:34.954Z,59.80
2017-03-17T00:06:35.035Z,60.00
2017-03-17T00:07:35.083Z,60.10
2017-03-17T00:08:35.086Z,60.40
2017-03-17T00:09:35.144Z,60.80
2017-03-17T00:10:35.917Z,60.70
2017-03-17T00:11:35.949Z,61.20
2017-03-17T00:12:36.026Z,61.30
2017-03-17T00:13:36.080Z,61.40
2017-03-17T00:14:36.138Z,61.80
2017-03-17T00:15:36.145Z,62.50
2017-03-17T00:16:36.131Z,61.90
2017-03-17T00:17:36.861Z,61.90
2017-03-17T00:18:37.484Z,61.90
2017-03-17T00:19:37.498Z,62.10
2017-03-17T00:20:37.509Z,62.50
2017-03-17T00:21:37.504Z,62.40
2017-03-17T00:22:37.588Z,62.50
2017-03-17T00:23:38.412Z,62.60
2017-03-17T00:24:38.472Z,62.60
2017-03-17T00:25:49.011Z,62.60
2017-03-17T00:26:49.187Z,62.90
2017-03-17T00:27:49.226Z,63.00
2017-03-17T00:28:49.960Z,63.40
2017-03-17T00:29:50.031Z,63.60
2017-03-17T00:30:50.052Z,63.60
2017-03-17T00:31:50.059Z,63.80
2017-03-17T00:32:50.093Z,64.00
2017-03-17T00:33:50.144Z,64.00
2017-03-17T00:34:50.187Z,64.20
2017-03-17T00:35:50.228Z,64.30
2017-03-17T00:36:50.246Z,64.40
2017-03-17T00:37:50.325Z,64.50
2017-03-17T00:38:50.478Z,64.80
2017-03-17T00:39:50.545Z,64.80
2017-03-17T00:40:50.606Z,64.90
2017-03-17T00:41:50.608Z,65.10
2017-03-17T00:42:50.661Z,65.10
2017-03-17T00:43:50.660Z,65.40
2017-03-17T00:44:50.740Z,65.40
2017-03-17T00:45:51.611Z,65.30
2017-03-17T00:46:51.732Z,65.50
2017-03-17T00:47:51.778Z,65.80
2017-03-17T00:48:51.780Z,65.70
2017-03-17T00:49:51.878Z,66.10
2017-03-17T00:50:52.096Z,66.20
2017-03-17T00:51:52.160Z,66.40
2017-03-17T00:52:52.161Z,66.90
2017-03-17T00:53:52.933Z,66.60
2017-03-17T00:54:53.012Z,66.70
2017-03-17T00:55:53.042Z,66.90
2017-03-17T00:56:53.024Z,67.20
2017-03-17T00:57:53.028Z,67.40
2017-03-17T00:58:53.041Z,67.70
2017-03-17T00:59:53.085Z,67.70
2017-03-17T01:00:53.098Z,68.00
2017-03-17T01:01:53.145Z,68.00
2017-03-17T01:02:53.146Z,68.30
2017-03-17T01:03:53.224Z,68.50
2017-03-17T01:04:53.221Z,68.50
2017-03-17T01:05:53.275Z,68.90
2017-03-17T01:06:53.329Z,69.20
2017-03-17T01:07:53.364Z,69.30
2017-03-17T01:08:53.397Z,69.30
2017-03-17T01:09:53.471Z,69.40
2017-03-17T01:10:53.503Z,69.80
2017-03-17T01:11:54.297Z,69.60
2017-03-17T01:12:54.376Z,69.70
2017-03-17T01:13:54.381Z,69.80
2017-03-17T01:14:54.380Z,69.80
2017-03-17T01:15:54.521Z,69.70
2017-03-17T01:16:54.532Z,69.80
2017-03-17T01:17:54.528Z,69.90
2017-03-17T01:18:54.514Z,70.10
2017-03-17T01:19:54.500Z,70.10
2017-03-17T01:20:54.545Z,69.90
2017-03-17T01:21:54.510Z,70.10
2017-03-17T01:22:54.553Z,70.00
2017-03-17T01:23:54.568Z,70.10
2017-03-17T01:24:54.597Z,70.00
2017-03-17T01:25:54.624Z,70.20
2017-03-17T01:26:54.614Z,70.10
2017-03-17T01:27:54.657Z,70.00
2017-03-17T01:28:54.753Z,70.00
2017-03-17T01:29:54.743Z,69.80
2017-03-17T01:30:54.797Z,69.90
2017-03-17T01:31:54.825Z,69.90
2017-03-17T01:32:54.813Z,69.90
2017-03-17T01:33:54.834Z,70.40
2017-03-17T01:34:54.853Z,70.10
2017-03-17T01:35:54.897Z,70.00
2017-03-17T01:36:55.028Z,70.90
2017-03-17T01:37:55.014Z,70.00
2017-03-17T01:38:55.098Z,70.20
2017-03-17T01:39:55.149Z,70.40
2017-03-17T01:40:55.144Z,70.30
2017-03-17T01:41:55.159Z,70.40
2017-03-17T01:42:55.166Z,70.80
2017-03-17T01:43:55.155Z,70.50
2017-03-17T01:44:55.950Z,70.40
2017-03-17T01:45:56.016Z,70.80
2017-03-17T01:46:56.066Z,70.80
2017-03-17T01:47:56.051Z,70.90
2017-03-17T01:48:56.043Z,71.00
2017-03-17T01:49:56.041Z,70.40
2017-03-17T01:50:56.072Z,71.10
2017-03-17T01:51:56.102Z,71.70
2017-03-17T01:52:56.076Z,71.40
2017-03-17T01:53:56.108Z,71.50
2017-03-17T01:54:56.188Z,71.60
2017-03-17T01:55:56.236Z,71.80
2017-03-17T01:56:56.237Z,71.90
2017-03-17T01:57:56.233Z,71.80
2017-03-17T01:58:56.241Z,72.00
2017-03-17T01:59:56.263Z,72.00
2017-03-17T02:00:56.372Z,72.10
2017-03-17T02:01:56.349Z,72.30
2017-03-17T02:02:56.372Z,72.40
2017-03-17T02:03:56.449Z,72.40
2017-03-17T02:04:56.494Z,72.60
2017-03-17T02:05:56.582Z,72.60
2017-03-17T02:06:56.608Z,72.70
2017-03-17T02:07:56.617Z,72.80
2017-03-17T02:08:56.688Z,73.00
2017-03-17T02:09:56.684Z,73.00
2017-03-17T02:10:56.710Z,73.20
2017-03-17T02:11:56.744Z,73.30
2017-03-17T02:12:56.791Z,73.30
2017-03-17T02:13:56.760Z,73.30
2017-03-17T02:14:56.757Z,73.40
2017-03-17T02:15:56.788Z,73.40
2017-03-17T02:16:56.821Z,73.90
2017-03-17T02:17:56.890Z,73.70
2017-03-17T02:18:56.869Z,73.80
2017-03-17T02:19:56.935Z,74.00
2017-03-17T02:20:57.054Z,74.20
2017-03-17T02:21:57.866Z,74.30
2017-03-17T02:22:58.631Z,74.60
2017-03-17T02:23:58.633Z,74.70
2017-03-17T02:24:58.726Z,74.90
2017-03-17T02:25:58.741Z,75.10
2017-03-17T02:26:58.733Z,75.20
2017-03-17T02:27:58.755Z,75.30
2017-03-17T02:28:58.764Z,75.20
2017-03-17T02:29:58.935Z,75.10
2017-03-17T02:30:58.945Z,75.20
2017-03-17T02:31:59.008Z,75.00
2017-03-17T02:32:59.046Z,75.00
2017-03-17T02:33:59.046Z,75.00
2017-03-17T02:34:59.101Z,74.70
2017-03-17T02:35:59.181Z,74.70
2017-03-17T02:36:59.200Z,74.60
2017-03-17T02:37:59.296Z,74.80
2017-03-17T02:39:00.141Z,74.50
2017-03-17T02:40:00.202Z,74.50
2017-03-17T02:41:00.257Z,74.20
2017-03-17T02:42:00.326Z,74.20
2017-03-17T02:43:00.350Z,74.30
2017-03-17T02:44:00.420Z,74.40
2017-03-17T02:45:00.471Z,74.40
2017-03-17T02:46:00.514Z,74.40
2017-03-17T02:47:00.560Z,74.20
2017-03-17T02:48:00.573Z,74.20
2017-03-17T02:49:01.370Z,74.10
2017-03-17T02:50:01.399Z,74.40
2017-03-17T02:51:01.396Z,74.10
2017-03-17T02:52:01.417Z,74.40
2017-03-17T02:53:01.407Z,74.30
2017-03-17T02:54:01.449Z,74.10
2017-03-17T02:55:01.462Z,74.40
2017-03-17T02:56:01.469Z,74.50
2017-03-17T02:57:02.337Z,74.80
2017-03-17T02:58:02.358Z,74.50
2017-03-17T02:59:02.353Z,74.30
2017-03-17T03:00:02.380Z,74.20
2017-03-17T03:01:02.407Z,74.20
2017-03-17T03:02:02.426Z,74.20
2017-03-17T03:03:03.181Z,74.00
2017-03-17T03:04:03.176Z,74.10
2017-03-17T03:05:03.165Z,74.30
2017-03-17T03:06:03.262Z,74.20
2017-03-17T03:07:03.341Z,73.80
2017-03-17T03:08:03.375Z,73.80
2017-03-17T03:09:03.499Z,73.80
2017-03-17T03:10:03.607Z,73.70
2017-03-17T03:11:04.372Z,73.90
2017-03-17T03:12:04.477Z,73.70
2017-03-17T03:13:04.522Z,73.70
2017-03-17T03:14:04.534Z,73.70
2017-03-17T03:15:04.661Z,73.60
2017-03-17T03:16:05.460Z,74.00
2017-03-17T03:17:05.500Z,73.90
2017-03-17T03:18:05.517Z,73.90
2017-03-17T03:19:05.534Z,74.10
2017-03-17T03:20:05.648Z,74.40
2017-03-17T03:21:05.713Z,74.20
2017-03-17T03:22:05.756Z,74.30
2017-03-17T03:23:05.765Z,74.40
2017-03-17T03:24:05.788Z,74.30
2017-03-17T03:25:05.853Z,74.80
2017-03-17T03:26:05.852Z,74.90
2017-03-17T03:27:05.973Z,75.10
2017-03-17T03:28:06.032Z,75.10
2017-03-17T03:29:06.022Z,75.20
2017-03-17T03:30:06.052Z,75.30
2017-03-17T03:31:06.089Z,75.40
2017-03-17T03:32:06.107Z,75.40
2017-03-17T03:33:06.853Z,75.30
2017-03-17T03:34:06.878Z,75.60
2017-03-17T03:35:06.886Z,76.00
2017-03-17T03:36:06.889Z,75.70
2017-03-17T03:37:06.926Z,75.70
2017-03-17T03:38:06.924Z,75.70
2017-03-17T03:39:06.977Z,75.80
2017-03-17T03:40:06.937Z,75.70
2017-03-17T03:41:07.005Z,75.50
2017-03-17T03:42:07.708Z,75.20
2017-03-17T03:43:07.735Z,75.40
2017-03-17T03:44:07.743Z,75.40
2017-03-17T03:45:07.721Z,75.60
2017-03-17T03:46:08.511Z,75.60
2017-03-17T03:47:08.558Z,76.00
2017-03-17T03:48:08.559Z,76.10
2017-03-17T03:49:08.554Z,76.20
2017-03-17T03:50:08.710Z,76.50
2017-03-17T03:51:08.707Z,77.00
2017-03-17T03:52:09.518Z,77.60
2017-03-17T03:53:09.649Z,76.90
2017-03-17T03:54:09.650Z,77.40
2017-03-17T03:55:09.642Z,77.40
2017-03-17T03:56:09.637Z,77.40
2017-03-17T03:57:09.675Z,77.80
2017-03-17T03:58:09.624Z,77.60
2017-03-17T03:59:09.618Z,77.70
2017-03-17T04:00:09.610Z,77.80
2017-03-17T04:01:09.672Z,77.70
2017-03-17T04:02:09.813Z,77.70
2017-03-17T04:03:09.783Z,77.80
2017-03-17T04:04:09.787Z,77.90
2017-03-17T04:05:09.795Z,78.90
2017-03-17T04:06:09.685Z,78.00
2017-03-17T04:07:09.628Z,79.10
2017-03-17T04:08:09.553Z,78.00
2017-03-17T04:09:09.486Z,78.10
2017-03-17T04:10:09.392Z,78.10
2017-03-17T04:11:09.329Z,78.10
2017-03-17T04:12:09.536Z,79.40
2017-03-17T04:13:09.546Z,78.20
2017-03-17T04:14:10.267Z,79.10
2017-03-17T04:15:10.252Z,78.20
2017-03-17T04:16:12.225Z,78.10
2017-03-17T04:17:12.238Z,78.00
2017-03-17T04:18:12.198Z,79.10
2017-03-17T04:19:14.741Z,77.90
2017-03-17T04:20:14.746Z,78.00
2017-03-17T04:21:14.759Z,77.90
2017-03-17T04:22:14.754Z,77.80
2017-03-17T04:23:14.735Z,78.20
2017-03-17T04:24:14.678Z,77.90
2017-03-17T04:25:25.628Z,77.80
2017-03-17T04:26:25.632Z,78.00
2017-03-17T04:27:25.705Z,77.80
2017-03-17T04:28:25.681Z,78.10
2017-03-17T04:29:25.693Z,79.10
2017-03-17T04:30:25.701Z,79.20
2017-03-17T04:31:25.694Z,79.20
2017-03-17T04:32:25.693Z,79.50
2017-03-17T04:33:25.660Z,79.60
2017-03-17T04:34:25.641Z,79.80
2017-03-17T04:35:25.637Z,79.70
2017-03-17T04:36:26.604Z,79.80
2017-03-17T04:37:26.602Z,79.90
2017-03-17T04:38:26.596Z,79.90
2017-03-17T04:39:26.573Z,79.90
2017-03-17T04:40:26.577Z,79.90
2017-03-17T04:41:26.605Z,80.10
2017-03-17T04:42:26.597Z,80.20
2017-03-17T04:43:26.655Z,80.20
2017-03-17T04:44:27.789Z,80.20
2017-03-17T04:45:27.774Z,80.60
2017-03-17T04:46:28.491Z,80.40
2017-03-17T04:47:28.505Z,80.40
2017-03-17T04:48:28.517Z,80.20
2017-03-17T04:49:28.522Z,80.40
2017-03-17T04:50:28.483Z,80.50
2017-03-17T04:51:28.473Z,80.50
2017-03-17T04:52:28.451Z,80.90
2017-03-17T04:53:29.164Z,80.80
2017-03-17T04:54:29.105Z,80.90
2017-03-17T04:55:29.057Z,80.70
2017-03-17T04:56:29.013Z,80.70
2017-03-17T04:57:29.017Z,80.70
2017-03-17T04:58:28.990Z,80.20
2017-03-17T04:59:28.910Z,80.40
2017-03-17T05:00:28.858Z,80.00
2017-03-17T05:01:28.830Z,79.90
2017-03-17T05:02:28.850Z,79.70
2017-03-17T05:03:28.847Z,79.70
2017-03-17T05:04:28.805Z,79.40
2017-03-17T05:05:28.736Z,79.40
2017-03-17T05:06:28.722Z,78.30
2017-03-17T05:07:28.713Z,79.30
2017-03-17T05:08:28.686Z,78.20
2017-03-17T05:09:28.753Z,79.40
2017-03-17T05:11:29.671Z,78.30
2017-03-17T05:12:29.624Z,77.80
2017-03-17T05:13:29.694Z,78.60
2017-03-17T05:14:29.722Z,77.50
2017-03-17T05:15:29.713Z,77.50
2017-03-17T05:16:29.675Z,77.60
2017-03-17T05:17:29.646Z,77.30
2017-03-17T05:18:29.648Z,77.00
2017-03-17T05:19:29.659Z,78.00
2017-03-17T05:20:29.645Z,77.30
2017-03-17T05:21:29.655Z,78.10
2017-03-17T05:22:30.230Z,77.40
2017-03-17T05:23:30.274Z,77.30
2017-03-17T05:24:38.843Z,77.40
2017-03-17T05:25:39.078Z,77.40
2017-03-17T05:26:40.314Z,77.60
2017-03-17T05:27:49.199Z,77.70
2017-03-17T05:28:49.203Z,78.70
2017-03-17T05:29:49.190Z,77.80
2017-03-17T05:30:49.280Z,78.40
2017-03-17T05:31:49.270Z,78.80
2017-03-17T05:32:49.248Z,78.90
2017-03-17T05:33:49.253Z,78.80
2017-03-17T05:34:49.261Z,77.80
2017-03-17T05:35:49.242Z,77.90
2017-03-17T05:36:49.203Z,79.10
2017-03-17T05:37:49.178Z,77.80
2017-03-17T05:38:49.192Z,77.60
2017-03-17T05:39:49.546Z,77.60
2017-03-17T05:40:49.532Z,77.70
2017-03-17T05:41:49.522Z,77.80
2017-03-17T05:42:49.487Z,77.40
2017-03-17T05:43:49.471Z,77.40
2017-03-17T05:44:49.593Z,77.50
2017-03-17T05:45:49.663Z,77.40
2017-03-17T05:46:49.660Z,77.50
2017-03-17T05:47:49.613Z,77.40
2017-03-17T05:48:49.605Z,77.50
2017-03-17T05:49:50.326Z,77.70
2017-03-17T05:50:50.312Z,78.80
2017-03-17T05:51:50.330Z,78.90
2017-03-17T05:52:50.526Z,78.10
2017-03-17T05:53:52.099Z,79.10
2017-03-17T05:54:52.081Z,78.20
2017-03-17T05:55:52.040Z,79.10
2017-03-17T05:56:52.005Z,78.40
2017-03-17T05:57:51.973Z,79.40
2017-03-17T05:58:51.952Z,79.50
2017-03-17T05:59:51.946Z,79.60
2017-03-17T06:00:52.693Z,79.80
2017-03-17T06:01:52.714Z,80.00
2017-03-17T06:02:52.673Z,80.00
2017-03-17T06:03:52.617Z,80.10
2017-03-17T06:04:52.661Z,80.70
2017-03-17T06:05:52.658Z,80.80
2017-03-17T06:06:52.627Z,80.70
2017-03-17T06:07:52.592Z,80.90
2017-03-17T06:08:52.582Z,81.60
2017-03-17T06:09:52.589Z,81.20
2017-03-17T06:10:52.566Z,80.90
2017-03-17T06:11:53.586Z,80.80
2017-03-17T06:12:53.550Z,80.70
2017-03-17T06:13:54.270Z,81.00
2017-03-17T06:14:54.279Z,81.00
2017-03-17T06:15:54.263Z,81.00
2017-03-17T06:16:54.234Z,81.20
2017-03-17T06:17:54.195Z,81.30
2017-03-17T06:18:54.217Z,81.40
2017-03-17T06:19:54.261Z,81.70
2017-03-17T06:20:55.200Z,81.50
2017-03-17T06:21:55.145Z,81.70
2017-03-17T06:22:55.097Z,81.90
2017-03-17T06:23:55.157Z,81.80
2017-03-17T06:24:55.181Z,81.60
2017-03-17T06:25:55.163Z,81.70
2017-03-17T06:26:55.159Z,81.50
2017-03-17T06:27:55.123Z,81.40
2017-03-17T06:28:55.065Z,82.10
2017-03-17T06:29:55.048Z,81.10
2017-03-17T06:30:55.059Z,81.00
2017-03-17T06:31:55.030Z,80.70
2017-03-17T06:32:55.750Z,80.20
2017-03-17T06:33:56.454Z,79.30
2017-03-17T06:34:56.421Z,79.10
2017-03-17T06:35:56.408Z,78.90
2017-03-17T06:36:56.520Z,79.10
2017-03-17T06:37:56.483Z,78.70
2017-03-17T06:38:56.466Z,78.70
2017-03-17T06:40:03.182Z,78.70
2017-03-17T06:41:03.179Z,78.80
2017-03-17T06:42:03.141Z,80.10
2017-03-17T06:43:03.106Z,79.40
2017-03-17T06:44:03.066Z,80.40
2017-03-17T06:45:03.063Z,80.30
2017-03-17T06:46:03.049Z,79.50
2017-03-17T06:47:02.995Z,79.50
2017-03-17T06:48:02.966Z,80.60
2017-03-17T06:49:02.931Z,79.70
2017-03-17T06:50:02.951Z,79.60
2017-03-17T06:51:02.911Z,79.60
2017-03-17T06:52:02.852Z,79.40
2017-03-17T06:53:02.784Z,79.30
2017-03-17T06:54:02.775Z,79.40
2017-03-17T06:55:02.776Z,79.40
2017-03-17T06:56:02.778Z,79.50
2017-03-17T06:57:02.751Z,79.70
2017-03-17T06:58:02.933Z,79.60
2017-03-17T06:59:02.879Z,79.50
2017-03-17T07:00:03.610Z,79.30
2017-03-17T07:01:05.074Z,79.60
2017-03-17T07:02:05.069Z,79.50
2017-03-17T07:03:05.053Z,79.70
2017-03-17T07:04:07.926Z,79.60
2017-03-17T07:05:07.920Z,79.60
2017-03-17T07:06:07.908Z,79.40
2017-03-17T07:07:07.872Z,79.40
2017-03-17T07:08:07.837Z,79.40
2017-03-17T07:09:07.856Z,79.40
2017-03-17T07:10:07.797Z,79.50
2017-03-17T07:11:07.825Z,79.60
2017-03-17T07:12:07.874Z,79.40
2017-03-17T07:13:07.872Z,79.30
2017-03-17T07:14:07.821Z,78.90
2017-03-17T07:15:07.837Z,79.10
2017-03-17T07:16:07.798Z,79.00
2017-03-17T07:17:08.557Z,79.10
2017-03-17T07:18:08.503Z,78.80
2017-03-17T07:19:08.481Z,78.70
2017-03-17T07:20:08.459Z,78.60
2017-03-17T07:21:09.149Z,78.80
2017-03-17T07:22:09.131Z,79.00
2017-03-17T07:23:09.206Z,79.10
2017-03-17T07:24:09.135Z,79.20
2017-03-17T07:25:15.642Z,79.30
2017-03-17T07:26:16.790Z,79.60
2017-03-17T07:27:16.759Z,79.80
2017-03-17T07:28:16.736Z,80.10
2017-03-17T07:29:16.677Z,80.70
2017-03-17T07:30:16.846Z,80.70
2017-03-17T07:31:16.819Z,80.70
2017-03-17T07:32:16.819Z,80.30
2017-03-17T07:33:16.812Z,81.80
2017-03-17T07:34:16.773Z,82.30
2017-03-17T07:35:16.915Z,82.70
2017-03-17T07:36:16.852Z,83.70
2017-03-17T07:37:17.618Z,83.20
2017-03-17T07:38:17.798Z,84.00
2017-03-17T07:39:17.819Z,84.60
2017-03-17T07:40:17.757Z,84.70
2017-03-17T07:41:17.730Z,84.70
2017-03-17T07:42:17.685Z,84.50
2017-03-17T07:43:17.672Z,84.90
2017-03-17T07:44:17.637Z,85.30
2017-03-17T07:45:17.779Z,85.60
2017-03-17T07:46:17.707Z,85.30
2017-03-17T07:47:17.712Z,84.90
2017-03-17T07:48:17.762Z,84.70
2017-03-17T07:49:17.748Z,85.10
2017-03-17T07:50:18.512Z,85.30
2017-03-17T07:51:18.446Z,85.00
2017-03-17T07:52:18.724Z,85.20
2017-03-17T07:53:18.741Z,85.20
2017-03-17T07:54:18.790Z,84.80
2017-03-17T07:55:18.761Z,84.70
2017-03-17T07:56:18.728Z,83.10
2017-03-17T07:57:19.468Z,84.60
2017-03-17T07:58:19.536Z,84.20
2017-03-17T07:59:19.508Z,83.30
2017-03-17T08:00:19.516Z,82.90
2017-03-17T08:01:19.471Z,82.50
2017-03-17T08:02:22.871Z,81.90
2017-03-17T08:03:23.000Z,83.50
2017-03-17T08:04:23.020Z,84.30
2017-03-17T08:05:23.099Z,82.00
2017-03-17T08:06:23.090Z,82.20
2017-03-17T08:07:23.218Z,81.60
2017-03-17T08:08:23.211Z,81.30
2017-03-17T08:09:23.152Z,81.30
2017-03-17T08:10:23.130Z,81.60
2017-03-17T08:11:23.056Z,81.50
2017-03-17T08:12:23.059Z,81.30
2017-03-17T08:13:23.094Z,81.90
2017-03-17T08:14:23.039Z,82.60
2017-03-17T08:15:23.789Z,80.60
2017-03-17T08:16:23.747Z,79.30
2017-03-17T08:17:23.685Z,78.80
2017-03-17T08:18:24.477Z,77.40
2017-03-17T08:19:24.906Z,78.10
2017-03-17T08:20:24.874Z,78.00
2017-03-17T08:21:24.882Z,78.50
2017-03-17T08:22:24.833Z,79.70
2017-03-17T08:23:24.823Z,79.10
2017-03-17T08:24:24.802Z,79.30
2017-03-17T08:25:36.221Z,77.20
2017-03-17T08:26:36.395Z,77.10
2017-03-17T08:27:36.375Z,77.80
2017-03-17T08:28:36.373Z,78.00
2017-03-17T08:29:36.364Z,76.70
2017-03-17T08:30:36.346Z,77.00
2017-03-17T08:31:36.326Z,75.80
2017-03-17T08:32:36.315Z,75.40
2017-03-17T08:33:36.289Z,74.00
2017-03-17T08:34:36.283Z,74.60
2017-03-17T08:35:36.234Z,73.80
2017-03-17T08:36:36.192Z,73.50
2017-03-17T08:37:36.887Z,74.00
2017-03-17T08:38:36.892Z,75.20
2017-03-17T08:39:36.811Z,75.40
2017-03-17T08:40:36.771Z,75.30
2017-03-17T08:41:36.716Z,76.20
2017-03-17T08:42:36.747Z,75.00
2017-03-17T08:43:36.707Z,74.10
2017-03-17T08:44:36.781Z,73.90
2017-03-17T08:45:36.751Z,74.10
2017-03-17T08:46:36.746Z,74.20
2017-03-17T08:47:36.915Z,74.10
2017-03-17T08:48:36.907Z,73.80
2017-03-17T08:49:37.674Z,72.30
2017-03-17T08:50:37.681Z,72.10
2017-03-17T08:51:37.669Z,72.20
2017-03-17T08:52:37.723Z,72.30
2017-03-17T08:53:38.801Z,72.80
2017-03-17T08:54:38.813Z,72.30
2017-03-17T08:55:39.114Z,72.80
2017-03-17T08:56:39.078Z,72.70
2017-03-17T08:57:39.069Z,72.20
2017-03-17T08:58:39.126Z,72.00
2017-03-17T08:59:39.122Z,70.80
2017-03-17T09:00:39.137Z,70.80
2017-03-17T09:01:39.877Z,69.80
2017-03-17T09:02:39.815Z,69.30
2017-03-17T09:03:39.787Z,68.40
2017-03-17T09:04:39.981Z,67.80
2017-03-17T09:05:39.935Z,68.00
2017-03-17T09:06:39.939Z,68.30
2017-03-17T09:07:40.014Z,70.70
2017-03-17T09:08:39.965Z,72.00
2017-03-17T09:09:39.921Z,70.40
2017-03-17T09:10:39.866Z,70.70
2017-03-17T09:11:39.893Z,70.50
2017-03-17T09:12:39.959Z,69.80
2017-03-17T09:13:40.002Z,70.50
2017-03-17T09:14:39.974Z,71.90
2017-03-17T09:15:39.978Z,70.40
2017-03-17T09:16:39.952Z,68.60
2017-03-17T09:17:39.946Z,68.80
2017-03-17T09:18:39.942Z,69.00
2017-03-17T09:19:39.939Z,68.70
2017-03-17T09:20:39.918Z,69.40
2017-03-17T09:21:39.931Z,69.90
2017-03-17T09:22:39.908Z,67.90
2017-03-17T09:23:39.879Z,68.40
2017-03-17T09:24:39.840Z,65.60
2017-03-17T09:25:39.876Z,64.90
2017-03-17T09:26:39.857Z,63.50
2017-03-17T09:27:39.855Z,64.30
2017-03-17T09:28:39.834Z,63.00
2017-03-17T09:29:39.776Z,61.50
2017-03-17T09:30:39.819Z,59.30
2017-03-17T09:31:39.793Z,57.40
2017-03-17T09:32:39.801Z,56.00
2017-03-17T09:33:39.794Z,56.20
2017-03-17T09:34:39.774Z,55.30
2017-03-17T09:35:39.731Z,55.70
2017-03-17T09:36:40.319Z,55.30
2017-03-17T09:37:41.035Z,55.70
2017-03-17T09:38:41.023Z,54.30
2017-03-17T09:39:41.003Z,53.00
2017-03-17T09:40:41.034Z,51.60
2017-03-17T09:41:41.058Z,51.20
2017-03-17T09:42:41.010Z,51.40
2017-03-17T09:43:41.009Z,50.50
2017-03-17T09:44:40.933Z,50.90
2017-03-17T09:45:41.443Z,50.60
2017-03-17T09:46:41.416Z,51.00
2017-03-17T09:47:41.388Z,51.30
2017-03-17T09:48:42.154Z,51.20
2017-03-17T09:49:42.106Z,51.40
2017-03-17T09:50:42.849Z,51.00
2017-03-17T09:51:42.863Z,48.80
2017-03-17T09:52:42.871Z,46.70
2017-03-17T09:53:43.558Z,44.00
2017-03-17T09:54:43.599Z,41.90
2017-03-17T09:55:43.527Z,41.00
2017-03-17T09:56:43.527Z,40.60
2017-03-17T09:57:43.464Z,40.90
2017-03-17T09:58:43.480Z,41.60
2017-03-17T09:59:43.422Z,42.70
2017-03-17T10:00:43.386Z,44.00
2017-03-17T10:01:43.394Z,44.50
2017-03-17T10:02:43.354Z,44.00
2017-03-17T10:03:43.284Z,44.00
2017-03-17T10:04:43.347Z,43.70
2017-03-17T10:05:43.271Z,43.60
2017-03-17T10:06:43.320Z,44.00
2017-03-17T10:07:43.258Z,45.20
2017-03-17T10:08:43.294Z,46.30
2017-03-17T10:09:43.243Z,47.00
2017-03-17T10:10:43.225Z,47.00
2017-03-17T10:11:44.004Z,46.00
2017-03-17T10:12:43.978Z,45.30
2017-03-17T10:13:43.983Z,45.00
2017-03-17T10:14:44.086Z,45.30
2017-03-17T10:15:44.095Z,45.30
2017-03-17T10:16:44.779Z,45.20
2017-03-17T10:17:44.845Z,44.00
2017-03-17T10:18:44.838Z,43.10
2017-03-17T10:19:44.795Z,42.50
2017-03-17T10:20:44.826Z,41.60
2017-03-17T10:21:44.833Z,41.80
2017-03-17T10:22:44.806Z,41.20
2017-03-17T10:23:44.813Z,40.50
2017-03-17T10:24:51.842Z,39.90
2017-03-17T10:25:53.361Z,39.30
2017-03-17T10:26:53.367Z,37.60
2017-03-17T10:27:53.363Z,37.30
2017-03-17T10:28:53.355Z,36.80
2017-03-17T10:29:53.415Z,36.10
2017-03-17T10:30:53.347Z,36.40
2017-03-17T10:31:53.367Z,36.30
2017-03-17T10:32:53.382Z,36.60
2017-03-17T10:33:53.371Z,37.50
2017-03-17T10:34:53.389Z,38.10
2017-03-17T10:35:53.382Z,38.80
2017-03-17T10:36:53.384Z,39.70
2017-03-17T10:37:54.119Z,40.00
2017-03-17T10:38:54.168Z,39.60
2017-03-17T10:39:54.392Z,39.90
2017-03-17T10:40:54.346Z,39.30
2017-03-17T10:41:54.365Z,37.40
2017-03-17T10:42:54.346Z,37.80
2017-03-17T10:43:54.304Z,38.50
2017-03-17T10:44:54.267Z,37.40
2017-03-17T10:45:54.279Z,36.90
2017-03-17T10:46:54.261Z,36.80
2017-03-17T10:47:54.231Z,36.70
2017-03-17T10:48:54.261Z,36.10
2017-03-17T10:49:54.274Z,35.60
2017-03-17T10:50:54.259Z,35.10
2017-03-17T10:51:54.359Z,35.60
2017-03-17T10:52:54.369Z,35.50
2017-03-17T10:53:54.436Z,35.50
2017-03-17T10:54:54.459Z,36.00
2017-03-17T10:55:54.495Z,36.70
2017-03-17T10:56:54.588Z,37.10
2017-03-17T10:57:54.694Z,37.20
2017-03-17T10:58:54.763Z,37.50
2017-03-17T10:59:55.562Z,37.50
2017-03-17T11:00:55.727Z,37.30
2017-03-17T11:01:55.849Z,37.20
2017-03-17T11:02:55.995Z,37.10
2017-03-17T11:03:56.645Z,37.00
2017-03-17T11:04:56.718Z,37.40
2017-03-17T11:05:56.769Z,37.70
2017-03-17T11:06:56.815Z,37.70
2017-03-17T11:07:56.937Z,37.80
2017-03-17T11:08:57.001Z,38.00
2017-03-17T11:09:57.125Z,38.00
2017-03-17T11:10:57.157Z,38.10
2017-03-17T11:11:57.266Z,38.40
2017-03-17T11:12:57.316Z,38.40
2017-03-17T11:13:57.331Z,38.60
2017-03-17T11:14:57.417Z,39.10
2017-03-17T11:15:58.222Z,39.30
2017-03-17T11:16:58.241Z,39.70
2017-03-17T11:17:58.985Z,40.30
2017-03-17T11:18:59.108Z,40.20
2017-03-17T11:19:59.107Z,40.50
2017-03-17T11:20:59.227Z,40.80
2017-03-17T11:21:59.346Z,40.90
2017-03-17T11:22:59.457Z,41.00
2017-03-17T11:23:59.521Z,40.40
2017-03-17T11:25:00.281Z,40.20
2017-03-17T11:26:00.440Z,39.70
2017-03-17T11:27:00.574Z,39.20
2017-03-17T11:28:00.607Z,38.80
2017-03-17T11:29:01.788Z,38.60
2017-03-17T11:30:01.846Z,38.70
2017-03-17T11:31:01.842Z,38.20
2017-03-17T11:32:01.904Z,38.60
2017-03-17T11:33:01.945Z,39.20
2017-03-17T11:34:01.986Z,39.20
2017-03-17T11:35:02.081Z,39.20
2017-03-17T11:36:02.189Z,40.10
2017-03-17T11:37:02.278Z,40.00
2017-03-17T11:38:03.006Z,40.60
2017-03-17T11:39:03.121Z,41.00
2017-03-17T11:40:03.186Z,41.40
2017-03-17T11:41:03.218Z,41.70
2017-03-17T11:42:03.291Z,42.30
2017-03-17T11:43:03.386Z,42.60
2017-03-17T11:44:03.473Z,43.30
2017-03-17T11:45:03.573Z,44.20
2017-03-17T11:46:03.598Z,43.70
2017-03-17T11:47:03.695Z,43.90
2017-03-17T11:48:03.750Z,44.00
2017-03-17T11:49:03.763Z,44.30
2017-03-17T11:50:03.745Z,44.60
2017-03-17T11:51:03.925Z,45.10
2017-03-17T11:52:04.724Z,45.20
2017-03-17T11:53:04.739Z,45.80
2017-03-17T11:54:04.817Z,46.80
2017-03-17T11:55:04.795Z,46.70
2017-03-17T11:56:04.735Z,47.00
2017-03-17T11:57:04.710Z,47.40
2017-03-17T11:58:04.711Z,47.70
2017-03-17T11:59:04.707Z,48.00
2017-03-17T12:00:05.289Z,48.20
2017-03-17T12:01:05.226Z,48.30
2017-03-17T12:02:05.221Z,48.50
2017-03-17T12:03:05.196Z,48.60
2017-03-17T12:04:05.157Z,48.40
2017-03-17T12:05:05.119Z,48.40
2017-03-17T12:06:05.049Z,48.80
2017-03-17T12:07:04.994Z,49.00
2017-03-17T12:08:05.026Z,49.20
2017-03-17T12:09:05.789Z,49.40
2017-03-17T12:10:05.852Z,49.60
2017-03-17T12:11:05.797Z,49.50
2017-03-17T12:12:05.761Z,49.60
2017-03-17T12:13:05.871Z,49.80
2017-03-17T12:14:06.075Z,50.00
2017-03-17T12:15:06.091Z,50.10
2017-03-17T12:16:06.189Z,50.00
2017-03-17T12:17:06.974Z,49.90
2017-03-17T12:18:06.983Z,49.90
2017-03-17T12:19:07.061Z,50.20
2017-03-17T12:20:07.015Z,50.00
2017-03-17T12:21:06.988Z,50.20
2017-03-17T12:22:06.960Z,50.30
2017-03-17T12:23:06.944Z,50.20
2017-03-17T12:24:06.982Z,50.40
2017-03-17T12:25:28.200Z,50.00
2017-03-17T12:26:28.526Z,50.30
2017-03-17T12:27:29.241Z,50.20
2017-03-17T12:28:29.232Z,50.30
2017-03-17T12:29:29.384Z,50.20
2017-03-17T12:30:32.298Z,50.00
2017-03-17T12:31:32.391Z,49.90
2017-03-17T12:32:32.370Z,49.60
2017-03-17T12:33:32.701Z,49.70
2017-03-17T12:34:32.745Z,49.70
2017-03-17T12:35:32.714Z,49.60
2017-03-17T12:36:32.702Z,49.90
2017-03-17T12:37:32.663Z,49.80
2017-03-17T12:38:32.648Z,49.80
2017-03-17T12:39:32.630Z,50.00
2017-03-17T12:40:32.670Z,50.20
2017-03-17T12:41:32.645Z,50.20
2017-03-17T12:42:32.604Z,50.30
2017-03-17T12:43:33.330Z,50.20
2017-03-17T12:44:33.366Z,50.30
2017-03-17T12:45:33.374Z,50.40
2017-03-17T12:46:33.377Z,50.20
2017-03-17T12:47:34.324Z,50.40
2017-03-17T12:48:34.296Z,50.30
2017-03-17T12:49:33.547Z,50.40
2017-03-17T12:50:33.559Z,50.10
2017-03-17T12:51:33.612Z,50.00
2017-03-17T12:52:33.560Z,49.90
2017-03-17T12:53:33.567Z,49.50
2017-03-17T12:54:33.564Z,49.20
2017-03-17T12:55:33.533Z,48.30
2017-03-17T12:56:33.490Z,47.70